sensor_id;sensor_type;location;lat;lon;timestamp;P1;durP1;ratioP1;P2;durP2;ratioP2
3953;SDS011;1991;48.682;9.030;2023-11-21T00:01:53;8.30;;;2.10;;
3953;SDS011;1991;48.682;9.030;2023-11-21T00:04:19;6.67;;;1.90;;
3953;SDS011;1991;48.682;9.030;2023-11-21T00:06:45;6.80;;;2.17;;
3953;SDS011;1991;48.682;9.030;2023-11-21T00:09:12;9.03;;;2.43;;
3953;SDS011;1991;48.682;9.030;2023-11-21T00:11:40;8.93;;;2.07;;
3953;SDS011;1991;48.682;9.030;2023-11-21T00:14:09;5.63;;;2.77;;
3953;SDS011;1991;48.682;9.030;2023-11-21T00:16:36;8.67;;;1.80;;
3953;SDS011;1991;48.682;9.030;2023-11-21T00:19:01;6.43;;;1.90;;
3953;SDS011;1991;48.682;9.030;2023-11-21T00:21:28;4.90;;;1.50;;
3953;SDS011;1991;48.682;9.030;2023-11-21T00:23:54;6.97;;;1.57;;
3953;SDS011;1991;48.682;9.030;2023-11-21T00:26:19;4.57;;;1.60;;
3953;SDS011;1991;48.682;9.030;2023-11-21T00:28:45;5.93;;;2.27;;
3953;SDS011;1991;48.682;9.030;2023-11-21T00:31:10;4.57;;;1.80;;
3953;SDS011;1991;48.682;9.030;2023-11-21T00:33:37;6.27;;;1.60;;
3953;SDS011;1991;48.682;9.030;2023-11-21T00:36:05;6.23;;;1.50;;
3953;SDS011;1991;48.682;9.030;2023-11-21T00:38:38;8.50;;;1.50;;
3953;SDS011;1991;48.682;9.030;2023-11-21T00:41:05;4.27;;;1.93;;
3953;SDS011;1991;48.682;9.030;2023-11-21T00:43:31;5.53;;;1.43;;
3953;SDS011;1991;48.682;9.030;2023-11-21T00:45:58;6.30;;;1.57;;
3953;SDS011;1991;48.682;9.030;2023-11-21T00:48:24;4.97;;;2.10;;
3953;SDS011;1991;48.682;9.030;2023-11-21T00:50:49;5.43;;;1.67;;
3953;SDS011;1991;48.682;9.030;2023-11-21T00:53:15;4.27;;;1.60;;
3953;SDS011;1991;48.682;9.030;2023-11-21T00:55:41;4.20;;;1.37;;
3953;SDS011;1991;48.682;9.030;2023-11-21T00:58:06;6.67;;;1.50;;
3953;SDS011;1991;48.682;9.030;2023-11-21T01:00:35;3.53;;;1.23;;
3953;SDS011;1991;48.682;9.030;2023-11-21T01:03:04;7.57;;;1.47;;
3953;SDS011;1991;48.682;9.030;2023-11-21T01:05:30;3.13;;;1.33;;
3953;SDS011;1991;48.682;9.030;2023-11-21T01:07:55;4.23;;;1.20;;
3953;SDS011;1991;48.682;9.030;2023-11-21T01:10:21;6.73;;;1.57;;
3953;SDS011;1991;48.682;9.030;2023-11-21T01:12:46;2.97;;;1.07;;
3953;SDS011;1991;48.682;9.030;2023-11-21T01:15:13;4.53;;;1.20;;
3953;SDS011;1991;48.682;9.030;2023-11-21T01:17:39;5.50;;;1.07;;
3953;SDS011;1991;48.682;9.030;2023-11-21T01:20:05;4.47;;;1.03;;
3953;SDS011;1991;48.682;9.030;2023-11-21T01:22:38;7.53;;;1.57;;
3953;SDS011;1991;48.682;9.030;2023-11-21T01:25:04;4.20;;;1.60;;
3953;SDS011;1991;48.682;9.030;2023-11-21T01:27:32;3.83;;;1.20;;
3953;SDS011;1991;48.682;9.030;2023-11-21T01:29:59;2.90;;;1.00;;
3953;SDS011;1991;48.682;9.030;2023-11-21T01:32:25;8.03;;;1.17;;
3953;SDS011;1991;48.682;9.030;2023-11-21T01:34:50;3.40;;;1.10;;
3953;SDS011;1991;48.682;9.030;2023-11-21T01:37:16;2.83;;;1.37;;
3953;SDS011;1991;48.682;9.030;2023-11-21T01:39:42;3.17;;;1.37;;
3953;SDS011;1991;48.682;9.030;2023-11-21T01:42:09;2.63;;;0.90;;
3953;SDS011;1991;48.682;9.030;2023-11-21T01:44:34;4.77;;;1.03;;
3953;SDS011;1991;48.682;9.030;2023-11-21T01:47:01;4.00;;;1.27;;
3953;SDS011;1991;48.682;9.030;2023-11-21T01:49:30;5.90;;;1.00;;
3953;SDS011;1991;48.682;9.030;2023-11-21T01:51:59;2.47;;;0.80;;
3953;SDS011;1991;48.682;9.030;2023-11-21T01:54:25;1.23;;;0.63;;
3953;SDS011;1991;48.682;9.030;2023-11-21T01:56:51;3.23;;;0.90;;
3953;SDS011;1991;48.682;9.030;2023-11-21T01:59:20;4.67;;;1.23;;
3953;SDS011;1991;48.682;9.030;2023-11-21T02:01:47;3.50;;;0.80;;
3953;SDS011;1991;48.682;9.030;2023-11-21T02:04:15;5.40;;;1.07;;
3953;SDS011;1991;48.682;9.030;2023-11-21T02:06:40;1.93;;;0.97;;
3953;SDS011;1991;48.682;9.030;2023-11-21T02:09:06;4.40;;;0.83;;
3953;SDS011;1991;48.682;9.030;2023-11-21T02:11:33;3.07;;;0.80;;
3953;SDS011;1991;48.682;9.030;2023-11-21T02:14:00;2.33;;;0.80;;
3953;SDS011;1991;48.682;9.030;2023-11-21T02:16:25;3.50;;;0.77;;
3953;SDS011;1991;48.682;9.030;2023-11-21T02:18:52;2.27;;;0.77;;
3953;SDS011;1991;48.682;9.030;2023-11-21T02:21:17;1.70;;;0.60;;
3953;SDS011;1991;48.682;9.030;2023-11-21T02:23:44;3.67;;;0.80;;
3953;SDS011;1991;48.682;9.030;2023-11-21T02:26:11;3.10;;;0.70;;
3953;SDS011;1991;48.682;9.030;2023-11-21T02:28:37;2.20;;;0.77;;
3953;SDS011;1991;48.682;9.030;2023-11-21T02:31:04;6.17;;;1.10;;
3953;SDS011;1991;48.682;9.030;2023-11-21T02:33:30;2.83;;;0.60;;
3953;SDS011;1991;48.682;9.030;2023-11-21T02:35:59;4.47;;;0.60;;
3953;SDS011;1991;48.682;9.030;2023-11-21T02:38:25;2.83;;;0.50;;
3953;SDS011;1991;48.682;9.030;2023-11-21T02:40:51;2.80;;;0.73;;
3953;SDS011;1991;48.682;9.030;2023-11-21T02:43:16;3.73;;;0.70;;
3953;SDS011;1991;48.682;9.030;2023-11-21T02:45:42;2.00;;;0.40;;
3953;SDS011;1991;48.682;9.030;2023-11-21T02:48:07;2.40;;;0.60;;
3953;SDS011;1991;48.682;9.030;2023-11-21T02:50:33;0.77;;;0.50;;
3953;SDS011;1991;48.682;9.030;2023-11-21T02:53:00;2.63;;;0.77;;
3953;SDS011;1991;48.682;9.030;2023-11-21T02:55:29;3.70;;;1.00;;
3953;SDS011;1991;48.682;9.030;2023-11-21T02:57:55;1.20;;;0.43;;
3953;SDS011;1991;48.682;9.030;2023-11-21T03:00:21;1.20;;;0.40;;
3953;SDS011;1991;48.682;9.030;2023-11-21T03:02:49;1.13;;;0.50;;
3953;SDS011;1991;48.682;9.030;2023-11-21T03:05:15;1.87;;;0.40;;
3953;SDS011;1991;48.682;9.030;2023-11-21T03:07:40;4.37;;;0.60;;
3953;SDS011;1991;48.682;9.030;2023-11-21T03:10:06;1.57;;;0.53;;
3953;SDS011;1991;48.682;9.030;2023-11-21T03:12:36;1.37;;;0.40;;
3953;SDS011;1991;48.682;9.030;2023-11-21T03:15:02;2.73;;;0.53;;
3953;SDS011;1991;48.682;9.030;2023-11-21T03:17:28;1.93;;;0.90;;
3953;SDS011;1991;48.682;9.030;2023-11-21T03:19:54;3.33;;;0.40;;
3953;SDS011;1991;48.682;9.030;2023-11-21T03:22:20;2.10;;;0.60;;
3953;SDS011;1991;48.682;9.030;2023-11-21T03:24:45;3.33;;;0.57;;
3953;SDS011;1991;48.682;9.030;2023-11-21T03:27:11;2.03;;;0.60;;
3953;SDS011;1991;48.682;9.030;2023-11-21T03:29:37;1.33;;;0.60;;
3953;SDS011;1991;48.682;9.030;2023-11-21T03:32:03;2.93;;;0.63;;
3953;SDS011;1991;48.682;9.030;2023-11-21T03:34:29;0.53;;;0.30;;
3953;SDS011;1991;48.682;9.030;2023-11-21T03:36:54;1.67;;;0.50;;
3953;SDS011;1991;48.682;9.030;2023-11-21T03:39:20;3.90;;;0.70;;
3953;SDS011;1991;48.682;9.030;2023-11-21T03:41:47;1.63;;;0.40;;
3953;SDS011;1991;48.682;9.030;2023-11-21T03:44:13;1.20;;;0.50;;
3953;SDS011;1991;48.682;9.030;2023-11-21T03:46:39;1.30;;;0.30;;
3953;SDS011;1991;48.682;9.030;2023-11-21T03:49:04;3.17;;;0.60;;
3953;SDS011;1991;48.682;9.030;2023-11-21T03:51:30;1.13;;;0.40;;
3953;SDS011;1991;48.682;9.030;2023-11-21T03:53:55;2.47;;;0.43;;
3953;SDS011;1991;48.682;9.030;2023-11-21T03:56:21;1.77;;;0.40;;
3953;SDS011;1991;48.682;9.030;2023-11-21T03:58:47;1.23;;;0.57;;
3953;SDS011;1991;48.682;9.030;2023-11-21T04:01:23;2.13;;;0.50;;
3953;SDS011;1991;48.682;9.030;2023-11-21T04:03:49;0.50;;;0.20;;
3953;SDS011;1991;48.682;9.030;2023-11-21T04:06:19;2.47;;;0.37;;
3953;SDS011;1991;48.682;9.030;2023-11-21T04:08:44;1.27;;;0.40;;
3953;SDS011;1991;48.682;9.030;2023-11-21T04:11:10;0.87;;;0.50;;
3953;SDS011;1991;48.682;9.030;2023-11-21T04:13:40;1.33;;;0.40;;
3953;SDS011;1991;48.682;9.030;2023-11-21T04:16:07;0.93;;;0.40;;
3953;SDS011;1991;48.682;9.030;2023-11-21T04:18:35;0.87;;;0.40;;
3953;SDS011;1991;48.682;9.030;2023-11-21T04:21:01;1.63;;;0.40;;
3953;SDS011;1991;48.682;9.030;2023-11-21T04:23:28;1.30;;;0.40;;
3953;SDS011;1991;48.682;9.030;2023-11-21T04:25:55;0.37;;;0.27;;
3953;SDS011;1991;48.682;9.030;2023-11-21T04:28:22;4.43;;;0.50;;
3953;SDS011;1991;48.682;9.030;2023-11-21T04:30:48;1.23;;;0.50;;
3953;SDS011;1991;48.682;9.030;2023-11-21T04:33:13;1.13;;;0.33;;
3953;SDS011;1991;48.682;9.030;2023-11-21T04:35:39;1.00;;;0.40;;
3953;SDS011;1991;48.682;9.030;2023-11-21T04:38:04;3.23;;;0.50;;
3953;SDS011;1991;48.682;9.030;2023-11-21T04:40:30;1.30;;;0.40;;
3953;SDS011;1991;48.682;9.030;2023-11-21T04:42:55;1.53;;;0.30;;
3953;SDS011;1991;48.682;9.030;2023-11-21T04:45:22;1.33;;;0.70;;
3953;SDS011;1991;48.682;9.030;2023-11-21T04:47:47;1.50;;;0.23;;
3953;SDS011;1991;48.682;9.030;2023-11-21T04:50:13;1.10;;;0.30;;
3953;SDS011;1991;48.682;9.030;2023-11-21T04:52:39;1.67;;;0.50;;
3953;SDS011;1991;48.682;9.030;2023-11-21T04:55:05;1.40;;;0.30;;
3953;SDS011;1991;48.682;9.030;2023-11-21T04:57:34;0.60;;;0.30;;
3953;SDS011;1991;48.682;9.030;2023-11-21T05:00:00;1.43;;;0.40;;
3953;SDS011;1991;48.682;9.030;2023-11-21T05:02:26;1.53;;;0.30;;
3953;SDS011;1991;48.682;9.030;2023-11-21T05:04:52;0.43;;;0.30;;
3953;SDS011;1991;48.682;9.030;2023-11-21T05:07:18;1.73;;;0.40;;
3953;SDS011;1991;48.682;9.030;2023-11-21T05:09:43;0.50;;;0.37;;
3953;SDS011;1991;48.682;9.030;2023-11-21T05:12:10;0.80;;;0.50;;
3953;SDS011;1991;48.682;9.030;2023-11-21T05:14:39;0.87;;;0.40;;
3953;SDS011;1991;48.682;9.030;2023-11-21T05:17:05;2.83;;;0.60;;
3953;SDS011;1991;48.682;9.030;2023-11-21T05:19:41;0.40;;;0.30;;
3953;SDS011;1991;48.682;9.030;2023-11-21T05:22:11;1.00;;;0.50;;
3953;SDS011;1991;48.682;9.030;2023-11-21T05:24:37;2.77;;;0.50;;
3953;SDS011;1991;48.682;9.030;2023-11-21T05:27:04;1.47;;;0.60;;
3953;SDS011;1991;48.682;9.030;2023-11-21T05:29:42;2.83;;;0.93;;
3953;SDS011;1991;48.682;9.030;2023-11-21T05:32:10;0.80;;;0.50;;
3953;SDS011;1991;48.682;9.030;2023-11-21T05:34:36;0.63;;;0.50;;
3953;SDS011;1991;48.682;9.030;2023-11-21T05:37:03;0.97;;;0.40;;
3953;SDS011;1991;48.682;9.030;2023-11-21T05:39:34;1.13;;;0.50;;
3953;SDS011;1991;48.682;9.030;2023-11-21T05:42:01;0.60;;;0.60;;
3953;SDS011;1991;48.682;9.030;2023-11-21T05:44:27;4.30;;;1.00;;
3953;SDS011;1991;48.682;9.030;2023-11-21T05:46:55;1.40;;;0.60;;
3953;SDS011;1991;48.682;9.030;2023-11-21T05:49:26;0.60;;;0.50;;
3953;SDS011;1991;48.682;9.030;2023-11-21T05:51:55;3.83;;;0.70;;
3953;SDS011;1991;48.682;9.030;2023-11-21T05:54:23;0.77;;;0.60;;
3953;SDS011;1991;48.682;9.030;2023-11-21T05:56:49;2.37;;;0.60;;
3953;SDS011;1991;48.682;9.030;2023-11-21T05:59:14;1.97;;;0.67;;
3953;SDS011;1991;48.682;9.030;2023-11-21T06:01:40;2.13;;;0.80;;
3953;SDS011;1991;48.682;9.030;2023-11-21T06:04:06;1.70;;;0.70;;
3953;SDS011;1991;48.682;9.030;2023-11-21T06:06:33;1.77;;;0.87;;
3953;SDS011;1991;48.682;9.030;2023-11-21T06:08:59;1.17;;;0.70;;
3953;SDS011;1991;48.682;9.030;2023-11-21T06:11:25;1.10;;;0.70;;
3953;SDS011;1991;48.682;9.030;2023-11-21T06:13:50;2.63;;;0.70;;
3953;SDS011;1991;48.682;9.030;2023-11-21T06:16:18;2.50;;;0.60;;
3953;SDS011;1991;48.682;9.030;2023-11-21T06:18:44;1.07;;;0.40;;
3953;SDS011;1991;48.682;9.030;2023-11-21T06:21:11;2.63;;;0.83;;
3953;SDS011;1991;48.682;9.030;2023-11-21T06:23:37;1.90;;;0.60;;
3953;SDS011;1991;48.682;9.030;2023-11-21T06:26:02;1.47;;;0.70;;
3953;SDS011;1991;48.682;9.030;2023-11-21T06:28:29;3.50;;;0.70;;
3953;SDS011;1991;48.682;9.030;2023-11-21T06:30:55;0.97;;;0.77;;
3953;SDS011;1991;48.682;9.030;2023-11-21T06:33:22;1.10;;;0.60;;
3953;SDS011;1991;48.682;9.030;2023-11-21T06:35:48;2.93;;;0.87;;
3953;SDS011;1991;48.682;9.030;2023-11-21T06:38:14;4.30;;;0.90;;
3953;SDS011;1991;48.682;9.030;2023-11-21T06:40:40;1.60;;;0.80;;
3953;SDS011;1991;48.682;9.030;2023-11-21T06:43:06;1.10;;;1.00;;
3953;SDS011;1991;48.682;9.030;2023-11-21T06:45:32;4.20;;;0.87;;
3953;SDS011;1991;48.682;9.030;2023-11-21T06:47:59;2.33;;;0.70;;
3953;SDS011;1991;48.682;9.030;2023-11-21T06:50:25;3.70;;;0.80;;
3953;SDS011;1991;48.682;9.030;2023-11-21T06:52:50;0.80;;;0.80;;
3953;SDS011;1991;48.682;9.030;2023-11-21T06:55:16;2.17;;;0.83;;
3953;SDS011;1991;48.682;9.030;2023-11-21T06:57:42;0.97;;;0.87;;
3953;SDS011;1991;48.682;9.030;2023-11-21T07:00:13;1.20;;;1.00;;
3953;SDS011;1991;48.682;9.030;2023-11-21T07:02:42;1.37;;;0.80;;
3953;SDS011;1991;48.682;9.030;2023-11-21T07:05:08;2.73;;;0.90;;
3953;SDS011;1991;48.682;9.030;2023-11-21T07:07:33;2.40;;;0.80;;
3953;SDS011;1991;48.682;9.030;2023-11-21T07:10:00;1.50;;;0.90;;
3953;SDS011;1991;48.682;9.030;2023-11-21T07:12:28;3.77;;;1.10;;
3953;SDS011;1991;48.682;9.030;2023-11-21T07:14:55;2.70;;;0.67;;
3953;SDS011;1991;48.682;9.030;2023-11-21T07:17:20;2.60;;;0.73;;
3953;SDS011;1991;48.682;9.030;2023-11-21T07:19:48;1.10;;;0.97;;
3953;SDS011;1991;48.682;9.030;2023-11-21T07:22:14;1.60;;;0.90;;
3953;SDS011;1991;48.682;9.030;2023-11-21T07:24:47;3.30;;;0.90;;
3953;SDS011;1991;48.682;9.030;2023-11-21T07:27:14;2.30;;;1.00;;
3953;SDS011;1991;48.682;9.030;2023-11-21T07:29:40;1.10;;;0.87;;
3953;SDS011;1991;48.682;9.030;2023-11-21T07:32:06;1.50;;;0.77;;
3953;SDS011;1991;48.682;9.030;2023-11-21T07:34:34;1.10;;;0.90;;
3953;SDS011;1991;48.682;9.030;2023-11-21T07:36:59;0.87;;;0.80;;
3953;SDS011;1991;48.682;9.030;2023-11-21T07:39:25;1.50;;;0.80;;
3953;SDS011;1991;48.682;9.030;2023-11-21T07:41:50;2.00;;;1.07;;
3953;SDS011;1991;48.682;9.030;2023-11-21T07:44:16;1.33;;;0.70;;
3953;SDS011;1991;48.682;9.030;2023-11-21T07:46:45;2.90;;;0.80;;
3953;SDS011;1991;48.682;9.030;2023-11-21T07:49:11;2.10;;;0.80;;
3953;SDS011;1991;48.682;9.030;2023-11-21T07:51:37;1.47;;;0.77;;
3953;SDS011;1991;48.682;9.030;2023-11-21T07:54:02;1.07;;;0.70;;
3953;SDS011;1991;48.682;9.030;2023-11-21T07:56:28;1.33;;;0.80;;
3953;SDS011;1991;48.682;9.030;2023-11-21T08:01:22;5.30;;;1.23;;
3953;SDS011;1991;48.682;9.030;2023-11-21T08:03:48;2.43;;;0.60;;
3953;SDS011;1991;48.682;9.030;2023-11-21T08:06:16;2.87;;;0.97;;
3953;SDS011;1991;48.682;9.030;2023-11-21T08:08:42;1.47;;;0.60;;
3953;SDS011;1991;48.682;9.030;2023-11-21T08:11:08;1.07;;;0.70;;
3953;SDS011;1991;48.682;9.030;2023-11-21T08:19:04;4.33;;;0.53;;
3953;SDS011;1991;48.682;9.030;2023-11-21T08:32:40;1.27;;;0.70;;
3953;SDS011;1991;48.682;9.030;2023-11-21T08:41:10;2.67;;;0.87;;
3953;SDS011;1991;48.682;9.030;2023-11-21T08:43:40;1.20;;;0.73;;
3953;SDS011;1991;48.682;9.030;2023-11-21T08:49:42;2.13;;;0.60;;
3953;SDS011;1991;48.682;9.030;2023-11-21T08:52:22;1.50;;;0.50;;
3953;SDS011;1991;48.682;9.030;2023-11-21T09:12:06;0.83;;;0.60;;
3953;SDS011;1991;48.682;9.030;2023-11-21T09:20:13;1.13;;;0.73;;
3953;SDS011;1991;48.682;9.030;2023-11-21T09:22:40;1.40;;;0.63;;
3953;SDS011;1991;48.682;9.030;2023-11-21T09:25:05;1.20;;;0.60;;
3953;SDS011;1991;48.682;9.030;2023-11-21T09:27:44;0.90;;;0.53;;
3953;SDS011;1991;48.682;9.030;2023-11-21T09:30:11;5.10;;;0.70;;
3953;SDS011;1991;48.682;9.030;2023-11-21T09:32:39;0.73;;;0.40;;
3953;SDS011;1991;48.682;9.030;2023-11-21T09:35:05;0.80;;;0.50;;
3953;SDS011;1991;48.682;9.030;2023-11-21T09:37:33;0.57;;;0.57;;
3953;SDS011;1991;48.682;9.030;2023-11-21T09:39:59;1.97;;;0.50;;
3953;SDS011;1991;48.682;9.030;2023-11-21T09:42:58;1.30;;;0.50;;
3953;SDS011;1991;48.682;9.030;2023-11-21T09:47:59;2.47;;;0.70;;
3953;SDS011;1991;48.682;9.030;2023-11-21T09:50:25;0.50;;;0.50;;
3953;SDS011;1991;48.682;9.030;2023-11-21T09:55:42;4.10;;;0.70;;
3953;SDS011;1991;48.682;9.030;2023-11-21T09:58:09;2.50;;;0.67;;
3953;SDS011;1991;48.682;9.030;2023-11-21T10:00:40;2.03;;;0.60;;
3953;SDS011;1991;48.682;9.030;2023-11-21T10:03:07;1.67;;;0.73;;
3953;SDS011;1991;48.682;9.030;2023-11-21T10:05:34;1.07;;;0.70;;
3953;SDS011;1991;48.682;9.030;2023-11-21T10:08:00;1.20;;;0.50;;
3953;SDS011;1991;48.682;9.030;2023-11-21T10:10:26;1.20;;;0.67;;
3953;SDS011;1991;48.682;9.030;2023-11-21T10:12:57;4.97;;;0.70;;
3953;SDS011;1991;48.682;9.030;2023-11-21T10:15:31;2.03;;;0.80;;
3953;SDS011;1991;48.682;9.030;2023-11-21T10:18:03;2.07;;;0.60;;
3953;SDS011;1991;48.682;9.030;2023-11-21T10:20:34;0.93;;;0.60;;
3953;SDS011;1991;48.682;9.030;2023-11-21T10:23:00;4.00;;;0.63;;
3953;SDS011;1991;48.682;9.030;2023-11-21T10:25:27;1.87;;;0.57;;
3953;SDS011;1991;48.682;9.030;2023-11-21T10:27:57;1.47;;;0.63;;
3953;SDS011;1991;48.682;9.030;2023-11-21T10:30:34;0.90;;;0.50;;
3953;SDS011;1991;48.682;9.030;2023-11-21T10:33:02;1.67;;;0.80;;
3953;SDS011;1991;48.682;9.030;2023-11-21T10:38:15;2.73;;;0.70;;
3953;SDS011;1991;48.682;9.030;2023-11-21T10:40:41;2.40;;;0.70;;
3953;SDS011;1991;48.682;9.030;2023-11-21T10:43:09;1.10;;;0.80;;
3953;SDS011;1991;48.682;9.030;2023-11-21T10:45:36;1.70;;;1.00;;
3953;SDS011;1991;48.682;9.030;2023-11-21T10:48:06;1.83;;;0.90;;
3953;SDS011;1991;48.682;9.030;2023-11-21T10:50:33;2.30;;;0.87;;
3953;SDS011;1991;48.682;9.030;2023-11-21T10:53:03;3.00;;;0.83;;
3953;SDS011;1991;48.682;9.030;2023-11-21T10:55:29;1.93;;;1.03;;
3953;SDS011;1991;48.682;9.030;2023-11-21T10:57:57;2.87;;;1.10;;
3953;SDS011;1991;48.682;9.030;2023-11-21T11:00:24;3.27;;;0.90;;
3953;SDS011;1991;48.682;9.030;2023-11-21T11:02:52;1.50;;;0.90;;
3953;SDS011;1991;48.682;9.030;2023-11-21T11:05:19;1.87;;;1.33;;
3953;SDS011;1991;48.682;9.030;2023-11-21T11:07:59;1.70;;;1.20;;
3953;SDS011;1991;48.682;9.030;2023-11-21T11:10:29;1.13;;;1.00;;
3953;SDS011;1991;48.682;9.030;2023-11-21T11:12:55;2.27;;;1.40;;
3953;SDS011;1991;48.682;9.030;2023-11-21T11:15:22;2.90;;;1.40;;
3953;SDS011;1991;48.682;9.030;2023-11-21T11:17:48;2.43;;;1.40;;
3953;SDS011;1991;48.682;9.030;2023-11-21T11:20:14;1.87;;;1.43;;
3953;SDS011;1991;48.682;9.030;2023-11-21T11:22:44;2.73;;;1.50;;
3953;SDS011;1991;48.682;9.030;2023-11-21T11:28:11;2.53;;;1.70;;
3953;SDS011;1991;48.682;9.030;2023-11-21T11:33:43;8.33;;;6.60;;
3953;SDS011;1991;48.682;9.030;2023-11-21T11:36:17;3.67;;;2.57;;
3953;SDS011;1991;48.682;9.030;2023-11-21T11:38:45;4.77;;;2.90;;
3953;SDS011;1991;48.682;9.030;2023-11-21T11:41:11;2.53;;;2.13;;
3953;SDS011;1991;48.682;9.030;2023-11-21T11:43:37;2.63;;;2.20;;
3953;SDS011;1991;48.682;9.030;2023-11-21T11:46:10;12.77;;;10.67;;
3953;SDS011;1991;48.682;9.030;2023-11-21T11:48:40;13.20;;;10.03;;
3953;SDS011;1991;48.682;9.030;2023-11-21T11:51:06;2.87;;;2.10;;
3953;SDS011;1991;48.682;9.030;2023-11-21T11:53:40;3.20;;;1.53;;
3953;SDS011;1991;48.682;9.030;2023-11-21T11:58:51;3.10;;;1.97;;
3953;SDS011;1991;48.682;9.030;2023-11-21T12:06:32;1.53;;;1.30;;
3953;SDS011;1991;48.682;9.030;2023-11-21T12:09:01;3.13;;;1.70;;
3953;SDS011;1991;48.682;9.030;2023-11-21T12:11:33;1.83;;;1.63;;
3953;SDS011;1991;48.682;9.030;2023-11-21T12:14:00;1.07;;;0.90;;
3953;SDS011;1991;48.682;9.030;2023-11-21T12:16:27;1.50;;;1.10;;
3953;SDS011;1991;48.682;9.030;2023-11-21T12:18:53;1.70;;;1.37;;
3953;SDS011;1991;48.682;9.030;2023-11-21T12:21:19;1.57;;;1.13;;
3953;SDS011;1991;48.682;9.030;2023-11-21T12:23:45;2.83;;;1.53;;
3953;SDS011;1991;48.682;9.030;2023-11-21T12:26:12;1.20;;;0.97;;
3953;SDS011;1991;48.682;9.030;2023-11-21T12:28:38;2.50;;;1.73;;
3953;SDS011;1991;48.682;9.030;2023-11-21T12:31:08;2.53;;;1.70;;
3953;SDS011;1991;48.682;9.030;2023-11-21T12:33:35;1.73;;;1.63;;
3953;SDS011;1991;48.682;9.030;2023-11-21T12:36:02;1.67;;;1.57;;
3953;SDS011;1991;48.682;9.030;2023-11-21T12:38:34;1.90;;;1.17;;
3953;SDS011;1991;48.682;9.030;2023-11-21T12:41:00;1.37;;;1.27;;
3953;SDS011;1991;48.682;9.030;2023-11-21T12:43:26;2.90;;;1.20;;
3953;SDS011;1991;48.682;9.030;2023-11-21T12:46:04;0.73;;;0.73;;
3953;SDS011;1991;48.682;9.030;2023-11-21T12:48:43;1.13;;;0.90;;
3953;SDS011;1991;48.682;9.030;2023-11-21T12:51:10;0.90;;;0.80;;
3953;SDS011;1991;48.682;9.030;2023-11-21T12:53:37;1.00;;;0.80;;
3953;SDS011;1991;48.682;9.030;2023-11-21T12:56:21;0.67;;;0.67;;
3953;SDS011;1991;48.682;9.030;2023-11-21T12:58:50;0.75;;;0.57;;
3953;SDS011;1991;48.682;9.030;2023-11-21T13:01:19;0.63;;;0.60;;
3953;SDS011;1991;48.682;9.030;2023-11-21T13:03:47;0.50;;;0.50;;
3953;SDS011;1991;48.682;9.030;2023-11-21T13:06:16;0.68;;;0.60;;
3953;SDS011;1991;48.682;9.030;2023-11-21T13:08:43;2.58;;;0.63;;
3953;SDS011;1991;48.682;9.030;2023-11-21T13:11:10;2.00;;;0.80;;
3953;SDS011;1991;48.682;9.030;2023-11-21T13:13:36;1.38;;;1.02;;
3953;SDS011;1991;48.682;9.030;2023-11-21T13:16:03;2.47;;;1.80;;
3953;SDS011;1991;48.682;9.030;2023-11-21T13:18:29;1.65;;;1.55;;
3953;SDS011;1991;48.682;9.030;2023-11-21T13:20:58;2.13;;;1.30;;
3953;SDS011;1991;48.682;9.030;2023-11-21T13:23:27;1.55;;;0.98;;
3953;SDS011;1991;48.682;9.030;2023-11-21T13:25:54;2.30;;;1.23;;
3953;SDS011;1991;48.682;9.030;2023-11-21T13:28:20;0.93;;;0.93;;
3953;SDS011;1991;48.682;9.030;2023-11-21T13:30:46;1.30;;;1.15;;
3953;SDS011;1991;48.682;9.030;2023-11-21T13:33:13;1.20;;;1.08;;
3953;SDS011;1991;48.682;9.030;2023-11-21T13:35:42;1.83;;;1.55;;
3953;SDS011;1991;48.682;9.030;2023-11-21T13:38:16;4.18;;;1.73;;
3953;SDS011;1991;48.682;9.030;2023-11-21T13:40:50;2.95;;;1.70;;
3953;SDS011;1991;48.682;9.030;2023-11-21T13:43:19;5.00;;;3.05;;
3953;SDS011;1991;48.682;9.030;2023-11-21T13:45:47;9.85;;;8.38;;
3953;SDS011;1991;48.682;9.030;2023-11-21T13:48:26;6.78;;;5.30;;
3953;SDS011;1991;48.682;9.030;2023-11-21T13:51:07;7.75;;;6.82;;
3953;SDS011;1991;48.682;9.030;2023-11-21T13:53:42;9.60;;;7.75;;
3953;SDS011;1991;48.682;9.030;2023-11-21T13:56:15;8.57;;;6.37;;
3953;SDS011;1991;48.682;9.030;2023-11-21T13:58:45;3.67;;;2.60;;
3953;SDS011;1991;48.682;9.030;2023-11-21T14:01:20;4.30;;;2.93;;
3953;SDS011;1991;48.682;9.030;2023-11-21T14:04:01;14.17;;;10.93;;
3953;SDS011;1991;48.682;9.030;2023-11-21T14:06:45;4.87;;;3.73;;
3953;SDS011;1991;48.682;9.030;2023-11-21T14:09:16;6.00;;;4.37;;
3953;SDS011;1991;48.682;9.030;2023-11-21T14:11:54;7.90;;;5.80;;
3953;SDS011;1991;48.682;9.030;2023-11-21T14:14:21;3.80;;;3.40;;
3953;SDS011;1991;48.682;9.030;2023-11-21T14:16:49;1.33;;;0.60;;
3953;SDS011;1991;48.682;9.030;2023-11-21T14:19:16;0.93;;;0.53;;
3953;SDS011;1991;48.682;9.030;2023-11-21T14:21:45;0.50;;;0.40;;
3953;SDS011;1991;48.682;9.030;2023-11-21T14:24:13;0.50;;;0.50;;
3953;SDS011;1991;48.682;9.030;2023-11-21T14:26:43;1.43;;;0.40;;
3953;SDS011;1991;48.682;9.030;2023-11-21T14:29:11;0.60;;;0.50;;
3953;SDS011;1991;48.682;9.030;2023-11-21T14:31:45;0.47;;;0.40;;
3953;SDS011;1991;48.682;9.030;2023-11-21T14:34:11;5.37;;;1.37;;
3953;SDS011;1991;48.682;9.030;2023-11-21T14:36:38;4.30;;;0.70;;
3953;SDS011;1991;48.682;9.030;2023-11-21T14:39:04;1.27;;;0.93;;
3953;SDS011;1991;48.682;9.030;2023-11-21T14:41:34;1.50;;;1.00;;
3953;SDS011;1991;48.682;9.030;2023-11-21T14:44:01;1.30;;;1.20;;
3953;SDS011;1991;48.682;9.030;2023-11-21T14:46:28;1.30;;;1.10;;
3953;SDS011;1991;48.682;9.030;2023-11-21T14:48:54;1.30;;;1.20;;
3953;SDS011;1991;48.682;9.030;2023-11-21T14:51:32;1.67;;;0.90;;
3953;SDS011;1991;48.682;9.030;2023-11-21T14:54:11;1.90;;;0.90;;
3953;SDS011;1991;48.682;9.030;2023-11-21T14:56:37;3.07;;;1.20;;
3953;SDS011;1991;48.682;9.030;2023-11-21T14:59:03;1.87;;;0.93;;
3953;SDS011;1991;48.682;9.030;2023-11-21T15:01:37;1.10;;;1.00;;
3953;SDS011;1991;48.682;9.030;2023-11-21T15:04:21;2.20;;;2.10;;
3953;SDS011;1991;48.682;9.030;2023-11-21T15:07:03;1.50;;;1.20;;
3953;SDS011;1991;48.682;9.030;2023-11-21T15:09:30;3.03;;;1.70;;
3953;SDS011;1991;48.682;9.030;2023-11-21T15:12:04;2.30;;;1.50;;
3953;SDS011;1991;48.682;9.030;2023-11-21T15:14:40;4.97;;;1.60;;
3953;SDS011;1991;48.682;9.030;2023-11-21T15:17:10;3.00;;;1.50;;
3953;SDS011;1991;48.682;9.030;2023-11-21T15:19:40;2.10;;;2.00;;
3953;SDS011;1991;48.682;9.030;2023-11-21T15:22:07;3.17;;;2.57;;
3953;SDS011;1991;48.682;9.030;2023-11-21T15:24:33;3.57;;;1.60;;
3953;SDS011;1991;48.682;9.030;2023-11-21T15:26:59;1.90;;;1.60;;
3953;SDS011;1991;48.682;9.030;2023-11-21T15:29:24;1.57;;;1.47;;
3953;SDS011;1991;48.682;9.030;2023-11-21T15:31:51;1.87;;;1.67;;
3953;SDS011;1991;48.682;9.030;2023-11-21T15:34:21;2.13;;;1.60;;
3953;SDS011;1991;48.682;9.030;2023-11-21T15:36:47;2.57;;;2.03;;
3953;SDS011;1991;48.682;9.030;2023-11-21T15:39:15;2.43;;;1.77;;
3953;SDS011;1991;48.682;9.030;2023-11-21T15:41:41;2.53;;;2.33;;
3953;SDS011;1991;48.682;9.030;2023-11-21T15:44:07;2.77;;;2.40;;
3953;SDS011;1991;48.682;9.030;2023-11-21T15:46:35;3.03;;;2.50;;
3953;SDS011;1991;48.682;9.030;2023-11-21T15:49:02;3.90;;;2.87;;
3953;SDS011;1991;48.682;9.030;2023-11-21T15:51:35;3.33;;;2.50;;
3953;SDS011;1991;48.682;9.030;2023-11-21T15:54:01;3.60;;;2.40;;
3953;SDS011;1991;48.682;9.030;2023-11-21T15:56:26;7.13;;;5.87;;
3953;SDS011;1991;48.682;9.030;2023-11-21T15:58:52;3.93;;;2.63;;
3953;SDS011;1991;48.682;9.030;2023-11-21T16:01:18;3.83;;;2.40;;
3953;SDS011;1991;48.682;9.030;2023-11-21T16:03:46;5.43;;;3.23;;
3953;SDS011;1991;48.682;9.030;2023-11-21T16:06:13;3.13;;;2.83;;
3953;SDS011;1991;48.682;9.030;2023-11-21T16:08:40;3.40;;;2.93;;
3953;SDS011;1991;48.682;9.030;2023-11-21T16:11:06;6.57;;;4.03;;
3953;SDS011;1991;48.682;9.030;2023-11-21T16:13:31;6.80;;;6.20;;
3953;SDS011;1991;48.682;9.030;2023-11-21T16:15:59;4.57;;;2.90;;
3953;SDS011;1991;48.682;9.030;2023-11-21T16:18:24;3.70;;;2.93;;
3953;SDS011;1991;48.682;9.030;2023-11-21T16:20:50;4.60;;;3.20;;
3953;SDS011;1991;48.682;9.030;2023-11-21T16:23:16;5.33;;;4.43;;
3953;SDS011;1991;48.682;9.030;2023-11-21T16:25:42;3.50;;;3.20;;
3953;SDS011;1991;48.682;9.030;2023-11-21T16:28:08;6.77;;;4.00;;
3953;SDS011;1991;48.682;9.030;2023-11-21T16:30:34;5.17;;;4.07;;
3953;SDS011;1991;48.682;9.030;2023-11-21T16:33:01;4.80;;;4.40;;